Waverly, Nebraska
Current Conditions -  °F | °C
As of 2:54 AM on Friday 24 Oct 2014 (Local Time) from KLNK Reporting Station
Clear Clear  
Wind Chill: 60°   Ceiling: Unl
Heat Index: 60°   Visibility: 7mi
Dew Point: 56°   Wind: 9mph
Humidity: 86%   Direction: 200°SSW
Pressure: 29.99"   Gusts: NA
Location:  40.92°N, 96.53°W
Report Text: KLNK 240754Z AUTO 20008KT 7SM CLR 16/13 A2999 RMK AO2 SLP150 T01560133
Loading
Personal Weather Stations






























Interactive Weather Map
Tropical Storm Tracking
New forecast layout! Learn more

10-Day Weather Forecast

Advertisements
Track Severe Weather on mobile